Time;durP1;ratioP1;P1;durP2;ratioP2;P2;SDS_P1;SDS_P2;PMS_P1;PMS_P2;Temp;Humidity;BMP_temperature;BMP_pressure;BME280_temperature;BME280_humidity;BME280_pressure;Samples;Min_cycle;Max_cycle;Signal;HPM_P1;HPM_P2
2022/06/18 00:00:00;;;;;;;;;;;;;;;23.61;46.37;101221.88;2084099;28;882;-56
2022/06/18 00:01:00;;;;;;;;;;;;;;;23.59;45.88;101218.34;2084081;28;867;-56
2022/06/18 00:02:00;;;;;;;;;;;;;;;23.59;45.35;101215.66;2083542;28;981;-56
2022/06/18 00:03:00;;;;;;;;;;;;;;;23.57;45.79;101218.44;2084054;28;903;-56
2022/06/18 00:04:01;;;;;;;;;;;;;;;23.57;46.07;101225.63;2084075;28;796;-56
2022/06/18 00:05:01;;;;;;;;;;;;;;;23.55;45.65;101217.59;2084047;28;799;-56
2022/06/18 00:06:01;;;;;;;;;;;;;;;23.53;45.39;101219.50;2084056;28;1020;-56
2022/06/18 00:07:03;;;;;;;;;;;;;;;23.52;46.08;101215.03;2084005;28;1024;-56
2022/06/18 00:08:06;;;;;;;;;;;;;;;23.50;46.17;101211.50;2083678;28;1259;-56
2022/06/18 00:09:06;;;;;;;;;;;;;;;23.49;45.39;101207.03;2084048;28;954;-56
2022/06/18 00:10:09;;;;;;;;;;;;;;;23.47;45.76;101217.03;2084014;28;1142;-56
2022/06/18 00:13:49;;;;;;;;;;;;;;;23.44;46.21;101207.22;2084006;28;622;-56
2022/06/18 00:14:49;;;;;;;;;;;;;;;23.44;45.90;101207.22;2084026;28;894;-56
2022/06/18 00:15:56;;;;;;;;;;;;;;;23.42;45.43;101214.53;2083988;28;786;-56
2022/06/18 00:16:57;;;;;;;;;;;;;;;23.41;45.93;101211.88;2083972;28;827;-56
2022/06/18 00:17:57;;;;;;;;;;;;;;;23.39;45.96;101212.81;2083624;28;909;-56
2022/06/18 00:18:57;;;;;;;;;;;;;;;23.38;45.73;101208.34;2083726;28;1036;-56
2022/06/18 00:19:57;;;;;;;;;;;;;;;23.36;45.81;101203.94;2083929;28;871;-56
2022/06/18 00:20:59;;;;;;;;;;;;;;;23.36;45.64;101203.94;2083957;28;772;-56
2022/06/18 00:21:59;;;;;;;;;;;;;;;23.35;45.13;101200.34;2083917;28;1001;-56
2022/06/18 00:23:00;;;;;;;;;;;;;;;23.35;45.50;101207.59;2083909;28;1021;-56
2022/06/18 00:24:00;;;;;;;;;;;;;;;23.33;44.67;101198.66;2083429;28;1220;-56
2022/06/18 00:25:01;;;;;;;;;;;;;;;23.33;44.42;101198.66;2083888;28;863;-56
2022/06/18 00:26:01;;;;;;;;;;;;;;;23.32;45.09;101194.19;2083856;28;793;-56
2022/06/18 00:27:01;;;;;;;;;;;;;;;23.31;44.20;101193.31;2083852;28;835;-56
2022/06/18 00:28:02;;;;;;;;;;;;;;;23.30;44.75;101193.38;2091585;28;1348;-56
2022/06/18 00:29:02;;;;;;;;;;;;;;;23.30;44.84;101188.84;2091852;28;1273;-56
2022/06/18 00:30:05;;;;;;;;;;;;;;;23.30;44.48;101191.53;2092067;28;866;-57
2022/06/18 00:31:05;;;;;;;;;;;;;;;23.30;44.08;101191.53;2092014;28;1126;-56
2022/06/18 00:32:06;;;;;;;;;;;;;;;23.28;43.37;101190.72;2092007;28;1918;-56
2022/06/18 00:33:07;;;;;;;;;;;;;;;23.29;43.38;101191.63;2092061;28;902;-56
2022/06/18 00:34:07;;;;;;;;;;;;;;;23.27;44.12;101188.97;2092074;28;823;-56
2022/06/18 00:35:08;;;;;;;;;;;;;;;23.27;43.74;101193.50;2091843;28;1129;-56
2022/06/18 00:36:16;;;;;;;;;;;;;;;23.27;43.96;101188.97;2092003;28;1074;-56
2022/06/18 00:37:19;;;;;;;;;;;;;;;23.26;43.58;101192.59;2092100;28;1219;-56
2022/06/18 00:38:25;;;;;;;;;;;;;;;23.27;43.32;101197.06;2092012;28;848;-56
2022/06/18 00:39:28;;;;;;;;;;;;;;;23.26;43.42;101191.72;2092042;28;858;-56
2022/06/18 00:40:34;;;;;;;;;;;;;;;23.28;43.05;101192.56;2091752;28;1041;-56
2022/06/18 00:41:34;;;;;;;;;;;;;;;23.25;43.13;101185.47;2091997;28;889;-56
2022/06/18 00:42:35;;;;;;;;;;;;;;;23.24;43.63;101186.41;2092058;28;791;-56
2022/06/18 00:43:44;;;;;;;;;;;;;;;23.23;43.12;101185.50;2091994;28;1075;-56
2022/06/18 00:44:51;;;;;;;;;;;;;;;23.24;43.91;101189.97;2092105;28;831;-56
2022/06/18 00:45:53;;;;;;;;;;;;;;;23.23;43.54;101190.91;2090924;28;1132;-56
2022/06/18 00:46:58;;;;;;;;;;;;;;;23.22;43.44;101183.75;2083063;28;792;-56
2022/06/18 00:48:16;;;;;;;;;;;;;;;23.22;43.21;101180.13;2083814;28;847;-56
2022/06/18 00:49:23;;;;;;;;;;;;;;;23.22;43.76;101183.75;2091960;28;775;-56
2022/06/18 00:50:27;;;;;;;;;;;;;;;23.22;44.00;101174.75;2091927;28;878;-56
2022/06/18 00:51:42;;;;;;;;;;;;;;;23.20;43.58;101172.06;2091564;28;1905;-56
2022/06/18 00:52:55;;;;;;;;;;;;;;;23.20;44.28;101166.66;2091875;28;827;-56
2022/06/18 00:54:08;;;;;;;;;;;;;;;23.19;43.85;101161.34;2091956;28;890;-56
2022/06/18 00:55:34;;;;;;;;;;;;;;;23.21;44.36;101167.56;2091895;28;839;-56
2022/06/18 00:56:43;;;;;;;;;;;;;;;23.19;44.38;101156.81;2065979;28;1111;-56
2022/06/18 00:57:51;;;;;;;;;;;;;;;23.19;43.63;101161.34;2066377;28;1080;-56
2022/06/18 00:58:56;;;;;;;;;;;;;;;23.18;44.13;101163.16;2066400;28;953;-56
2022/06/18 01:00:23;;;;;;;;;;;;;;;23.18;44.13;101157.75;2066438;28;1060;-57
2022/06/18 01:01:27;;;;;;;;;;;;;;;23.18;44.80;101154.19;2063330;28;1293;-56
2022/06/18 01:02:33;;;;;;;;;;;;;;;23.18;43.92;101151.47;2066025;28;1238;-56
2022/06/18 01:03:34;;;;;;;;;;;;;;;23.18;44.01;101149.63;2066329;28;793;-56
2022/06/18 01:04:35;;;;;;;;;;;;;;;23.18;44.25;101146.94;2058255;28;1065;-56
2022/06/18 01:05:38;;;;;;;;;;;;;;;23.17;44.86;101150.56;2058287;28;851;-56
2022/06/18 01:06:38;;;;;;;;;;;;;;;23.16;44.38;101146.13;2066361;28;875;-56
2022/06/18 01:07:38;;;;;;;;;;;;;;;23.16;45.21;101146.13;2066087;28;1021;-56
2022/06/18 01:08:40;;;;;;;;;;;;;;;23.17;45.18;101158.69;2066170;28;1179;-56
2022/06/18 01:09:40;;;;;;;;;;;;;;;23.17;45.20;101147.00;2058244;28;1745;-57
2022/06/18 01:10:41;;;;;;;;;;;;;;;23.16;45.17;101148.81;2058219;28;1108;-56
2022/06/18 01:11:43;;;;;;;;;;;;;;;23.16;44.66;101139.84;2066047;28;1903;-56
2022/06/18 01:12:43;;;;;;;;;;;;;;;23.15;44.75;101141.66;2066304;28;820;-56
2022/06/18 01:13:44;;;;;;;;;;;;;;;23.14;45.20;101139.03;2065952;28;1095;-56
2022/06/18 01:14:45;;;;;;;;;;;;;;;23.14;44.66;101129.09;2066176;28;886;-56
2022/06/18 01:15:46;;;;;;;;;;;;;;;23.13;45.54;101134.56;2066249;28;1011;-56
2022/06/18 01:16:46;;;;;;;;;;;;;;;23.13;45.33;101135.44;2066287;28;982;-56
2022/06/18 01:17:48;;;;;;;;;;;;;;;23.14;45.53;101133.63;2066243;28;848;-56
2022/06/18 01:18:49;;;;;;;;;;;;;;;23.14;44.69;101130.91;2066099;28;982;-55
2022/06/18 01:19:49;;;;;;;;;;;;;;;23.13;44.82;101132.72;2065603;28;1102;-56
2022/06/18 01:20:51;;;;;;;;;;;;;;;23.12;44.85;101125.56;2066119;28;960;-56
2022/06/18 01:21:56;;;;;;;;;;;;;;;23.13;45.35;101123.75;2066224;28;998;-56
2022/06/18 01:22:59;;;;;;;;;;;;;;;23.12;45.35;101128.25;2066224;28;914;-56
2022/06/18 01:24:08;;;;;;;;;;;;;;;23.11;45.13;101123.78;2066187;28;788;-56
2022/06/18 01:25:08;;;;;;;;;;;;;;;23.12;45.05;101124.69;2065945;28;1044;-57
2022/06/18 01:26:10;;;;;;;;;;;;;;;23.11;45.10;101118.38;2066165;28;981;-57
2022/06/18 01:27:10;;;;;;;;;;;;;;;23.10;45.32;101124.75;2065947;28;1340;-56
2022/06/18 01:28:13;;;;;;;;;;;;;;;23.10;45.13;101122.94;2066177;28;867;-56
2022/06/18 01:29:14;;;;;;;;;;;;;;;23.10;45.70;101128.34;2066171;28;841;-56
2022/06/18 01:30:16;;;;;;;;;;;;;;;23.10;45.68;101122.94;2065906;28;1171;-56
2022/06/18 01:31:18;;;;;;;;;;;;;;;23.10;45.35;101122.94;2066087;28;1066;-56
2022/06/18 01:32:18;;;;;;;;;;;;;;;23.10;45.18;101119.34;2066074;28;1976;-56
2022/06/18 01:33:19;;;;;;;;;;;;;;;23.10;44.54;101124.75;2066124;28;1018;-56
2022/06/18 01:34:20;;;;;;;;;;;;;;;23.08;44.65;101114.00;2084812;28;934;-56
2022/06/18 01:35:21;;;;;;;;;;;;;;;23.09;43.78;101114.88;2091626;28;878;-56
2022/06/18 01:36:21;;;;;;;;;;;;;;;23.09;43.73;101115.75;2091456;28;1272;-56
2022/06/18 01:37:21;;;;;;;;;;;;;;;23.10;43.97;101111.22;2091560;28;1032;-56
2022/06/18 01:38:24;;;;;;;;;;;;;;;23.11;43.13;101110.28;2091488;28;1021;-56
2022/06/18 01:39:25;;;;;;;;;;;;;;;23.09;43.42;101107.66;2091555;28;843;-56
2022/06/18 01:40:29;;;;;;;;;;;;;;;23.10;42.79;101108.53;2091545;28;1001;-56
2022/06/18 01:41:51;;;;;;;;;;;;;;;23.09;42.94;101110.38;2091415;28;1007;-56
2022/06/18 01:42:52;;;;;;;;;;;;;;;23.08;43.14;101105.91;2091596;28;814;-56
2022/06/18 01:43:55;;;;;;;;;;;;;;;23.08;43.53;101105.00;2091544;28;1000;-56
2022/06/18 01:44:58;;;;;;;;;;;;;;;23.07;42.49;101096.03;2091540;28;1090;-56
2022/06/18 01:46:01;;;;;;;;;;;;;;;23.06;42.79;101096.97;2091553;28;874;-56
2022/06/18 01:47:04;;;;;;;;;;;;;;;23.08;43.05;101096.91;2091525;28;1122;-56
2022/06/18 01:48:08;;;;;;;;;;;;;;;23.08;43.28;101096.91;2091384;28;1008;-56
2022/06/18 01:49:11;;;;;;;;;;;;;;;23.08;42.48;101086.97;2091514;28;902;-56
2022/06/18 01:50:11;;;;;;;;;;;;;;;23.07;42.53;101085.22;2091504;28;850;-57
2022/06/18 01:51:17;;;;;;;;;;;;;;;23.07;42.35;101087.03;2091467;28;756;-56
2022/06/18 01:52:19;;;;;;;;;;;;;;;23.08;43.01;101080.69;2091404;28;1914;-56
2022/06/18 01:53:22;;;;;;;;;;;;;;;23.08;42.69;101081.59;2091238;28;862;-56
2022/06/18 01:54:27;;;;;;;;;;;;;;;23.08;42.50;101081.59;2091451;28;969;-56
2022/06/18 01:55:33;;;;;;;;;;;;;;;23.08;43.20;101077.97;2091596;28;772;-56
2022/06/18 01:56:36;;;;;;;;;;;;;;;23.08;43.35;101081.59;2091488;28;839;-56
2022/06/18 01:57:39;;;;;;;;;;;;;;;23.08;42.74;101075.28;2091339;28;997;-56
2022/06/18 01:58:51;;;;;;;;;;;;;;;23.09;42.59;101072.53;2091286;28;1160;-55
2022/06/18 01:59:53;;;;;;;;;;;;;;;23.10;42.75;101065.28;2091607;28;819;-56
2022/06/18 02:00:55;;;;;;;;;;;;;;;23.09;43.48;101058.13;2091450;28;1004;-56
2022/06/18 02:01:56;;;;;;;;;;;;;;;23.09;42.63;101064.44;2082501;28;1297;-56
2022/06/18 02:02:58;;;;;;;;;;;;;;;23.09;43.64;101060.84;2082605;28;926;-56
2022/06/18 02:03:59;;;;;;;;;;;;;;;23.09;42.97;101059.03;2091421;28;1195;-56
2022/06/18 02:04:59;;;;;;;;;;;;;;;23.08;43.56;101054.56;2091191;28;997;-55
2022/06/18 02:06:00;;;;;;;;;;;;;;;23.09;43.12;101060.84;2091413;28;981;-56
2022/06/18 02:07:01;;;;;;;;;;;;;;;23.09;43.21;101050.91;2082524;28;1659;-55
2022/06/18 02:08:01;;;;;;;;;;;;;;;23.08;43.90;101054.56;2082592;28;783;-56
2022/06/18 02:09:02;;;;;;;;;;;;;;;23.08;44.02;101049.16;2091354;28;989;-56
2022/06/18 02:10:06;;;;;;;;;;;;;;;23.09;43.11;101045.53;2091375;28;1009;-56
2022/06/18 02:11:07;;;;;;;;;;;;;;;23.09;43.28;101045.53;2091129;28;1059;-56
2022/06/18 02:12:12;;;;;;;;;;;;;;;23.08;43.62;101043.75;2091325;28;1895;-56
2022/06/18 02:13:12;;;;;;;;;;;;;;;23.09;43.50;101044.63;2091409;28;856;-56
2022/06/18 02:14:14;;;;;;;;;;;;;;;23.09;43.91;101044.63;2091361;28;791;-56
2022/06/18 02:15:20;;;;;;;;;;;;;;;23.10;44.04;101040.97;2091373;28;843;-56
2022/06/18 02:16:23;;;;;;;;;;;;;;;23.09;44.34;101036.50;2091114;28;987;-56
2022/06/18 02:17:25;;;;;;;;;;;;;;;23.10;43.50;101032.88;2091374;28;1040;-56
2022/06/18 02:18:27;;;;;;;;;;;;;;;23.09;43.99;101033.81;2091358;28;981;-56
2022/06/18 02:19:27;;;;;;;;;;;;;;;23.09;43.64;101025.72;2091360;28;1060;-56
2022/06/18 02:20:29;;;;;;;;;;;;;;;23.10;44.44;101030.16;2091363;28;1047;-56
2022/06/18 02:21:32;;;;;;;;;;;;;;;23.09;44.54;101023.00;2091367;28;768;-56
2022/06/18 02:22:35;;;;;;;;;;;;;;;23.09;44.43;101028.41;2091082;28;1066;-56
2022/06/18 02:23:35;;;;;;;;;;;;;;;23.08;44.30;101027.53;2091320;28;894;-56
2022/06/18 02:24:35;;;;;;;;;;;;;;;23.08;44.69;101023.94;2091300;28;895;-56
2022/06/18 02:25:36;;;;;;;;;;;;;;;23.08;44.08;101026.66;2091310;28;953;-56
2022/06/18 02:26:38;;;;;;;;;;;;;;;23.08;44.57;101019.44;2082331;28;1480;-56
2022/06/18 02:27:39;;;;;;;;;;;;;;;23.08;44.24;101010.44;2082340;28;1294;-57
2022/06/18 02:28:41;;;;;;;;;;;;;;;23.08;44.29;101015.84;2091293;28;981;-56
2022/06/18 02:29:42;;;;;;;;;;;;;;;23.08;44.98;101011.34;2091575;28;692;-56
2022/06/18 02:30:43;;;;;;;;;;;;;;;23.07;45.02;101011.38;2091337;28;997;-56
2022/06/18 02:31:45;;;;;;;;;;;;;;;23.07;45.52;101001.47;2091239;28;1906;-56
2022/06/18 02:32:50;;;;;;;;;;;;;;;23.07;45.74;101008.69;2091320;28;776;-56
2022/06/18 02:33:53;;;;;;;;;;;;;;;23.07;45.53;101008.69;2091076;28;1007;-56
2022/06/18 02:34:54;;;;;;;;;;;;;;;23.08;46.02;101002.34;2091267;28;823;-56
2022/06/18 02:35:55;;;;;;;;;;;;;;;23.08;45.96;101002.34;2091312;28;827;-56
2022/06/18 02:36:56;;;;;;;;;;;;;;;23.08;46.92;101005.94;2091267;28;858;-56
2022/06/18 02:37:56;;;;;;;;;;;;;;;23.06;46.80;100999.72;2091223;28;1295;-56
2022/06/18 02:39:01;;;;;;;;;;;;;;;23.07;47.22;100997.88;2091245;28;974;-56
2022/06/18 02:40:02;;;;;;;;;;;;;;;23.06;47.00;100998.81;2091141;28;988;-56
2022/06/18 02:41:03;;;;;;;;;;;;;;;23.07;47.18;100997.88;2091276;28;799;-56
2022/06/18 02:42:03;;;;;;;;;;;;;;;23.06;47.42;100994.31;2091228;28;966;-56
2022/06/18 02:43:03;;;;;;;;;;;;;;;23.07;47.91;100992.47;2091264;28;823;-56
2022/06/18 02:44:04;;;;;;;;;;;;;;;23.06;47.48;100988.00;2091220;28;981;-56
2022/06/18 02:45:05;;;;;;;;;;;;;;;23.06;47.50;100993.41;2091224;28;1013;-56
2022/06/18 02:46:05;;;;;;;;;;;;;;;23.07;47.52;100989.75;2091055;28;1147;-56
2022/06/18 02:47:06;;;;;;;;;;;;;;;23.05;47.72;100981.75;2091234;28;1025;-56
2022/06/18 02:48:09;;;;;;;;;;;;;;;23.04;48.47;100979.97;2091290;28;776;-56
2022/06/18 02:49:11;;;;;;;;;;;;;;;23.03;48.64;100980.94;2091279;28;855;-56
2022/06/18 02:50:15;;;;;;;;;;;;;;;23.04;48.02;100979.09;2091240;28;874;-56
2022/06/18 02:51:15;;;;;;;;;;;;;;;23.03;48.98;100980.03;2090962;28;1023;-56
2022/06/18 02:52:15;;;;;;;;;;;;;;;23.03;48.85;100985.44;2091152;28;1952;-56
2022/06/18 02:53:16;;;;;;;;;;;;;;;23.03;49.07;100977.31;2091263;28;978;-56
2022/06/18 02:54:17;;;;;;;;;;;;;;;23.04;48.58;100976.38;2091341;28;774;-56
2022/06/18 02:55:25;;;;;;;;;;;;;;;23.02;49.25;100979.16;2091209;28;780;-56
2022/06/18 02:56:25;;;;;;;;;;;;;;;23.02;49.21;100978.28;2091194;28;908;-56
2022/06/18 02:57:27;;;;;;;;;;;;;;;23.02;48.53;100978.28;2090947;28;1051;-56
2022/06/18 02:58:29;;;;;;;;;;;;;;;23.00;49.00;100970.25;2091216;28;769;-56
2022/06/18 02:59:30;;;;;;;;;;;;;;;23.00;49.06;100969.34;2091182;28;878;-56
2022/06/18 03:00:36;;;;;;;;;;;;;;;23.00;49.26;100966.66;2091186;28;831;-56
2022/06/18 03:01:36;;;;;;;;;;;;;;;23.00;49.31;100961.25;2091215;28;823;-56
2022/06/18 03:02:36;;;;;;;;;;;;;;;23.00;48.63;100961.25;2091159;28;762;-56
2022/06/18 03:03:38;;;;;;;;;;;;;;;22.98;48.46;100955.91;2090900;28;992;-56
2022/06/18 03:04:39;;;;;;;;;;;;;;;22.98;48.68;100963.13;2091224;28;872;-56
2022/06/18 03:05:39;;;;;;;;;;;;;;;22.97;48.56;100946.06;2091206;28;899;-56
2022/06/18 03:06:39;;;;;;;;;;;;;;;22.95;48.14;100947.94;2091166;28;993;-56
2022/06/18 03:07:40;;;;;;;;;;;;;;;22.93;48.61;100948.03;2091146;28;1041;-57
2022/06/18 03:08:40;;;;;;;;;;;;;;;22.93;48.03;100948.03;2091119;28;747;-56
2022/06/18 03:12:18;;;;;;;;;;;;;;;22.92;47.11;100950.78;2092664;28;1973;-56
2022/06/18 03:13:19;;;;;;;;;;;;;;;22.90;46.88;100942.75;2092806;28;784;-56
2022/06/18 03:14:19;;;;;;;;;;;;;;;22.90;45.98;100941.84;2092658;28;868;-56
2022/06/18 03:15:19;;;;;;;;;;;;;;;22.89;45.68;100943.69;2092411;28;1126;-57
2022/06/18 03:16:22;;;;;;;;;;;;;;;22.89;46.17;100934.69;2092660;28;989;-56
2022/06/18 03:17:22;;;;;;;;;;;;;;;22.88;44.97;100931.13;2092696;28;854;-56
2022/06/18 03:18:25;;;;;;;;;;;;;;;22.88;44.99;100925.72;2092660;28;985;-56
2022/06/18 03:19:31;;;;;;;;;;;;;;;22.88;45.06;100941.94;2092671;28;824;-56
2022/06/18 03:21:00;;;;;;;;;;;;;;;22.88;44.99;100930.22;2092693;28;776;-56
2022/06/18 03:22:04;;;;;;;;;;;;;;;22.86;44.00;100924.00;2083338;28;1053;-56
2022/06/18 03:23:05;;;;;;;;;;;;;;;22.86;44.51;100918.59;2083474;28;863;-56
2022/06/18 03:24:05;;;;;;;;;;;;;;;22.87;43.72;100918.56;2083411;28;938;-56
2022/06/18 03:25:06;;;;;;;;;;;;;;;22.87;43.78;100915.88;2083371;28;1185;-56
2022/06/18 03:26:06;;;;;;;;;;;;;;;22.87;44.07;100914.97;2083386;28;907;-56
2022/06/18 03:27:07;;;;;;;;;;;;;;;22.89;43.78;100916.69;2082572;28;1195;-56
2022/06/18 03:28:07;;;;;;;;;;;;;;;22.89;43.89;100911.28;2083385;28;867;-56
2022/06/18 03:29:07;;;;;;;;;;;;;;;22.88;43.95;100912.22;2083380;28;993;-56
2022/06/18 03:30:08;;;;;;;;;;;;;;;22.89;43.38;100911.28;2083394;28;1028;-56
2022/06/18 03:31:08;;;;;;;;;;;;;;;22.87;43.71;100905.06;2083407;28;835;-56
2022/06/18 03:32:08;;;;;;;;;;;;;;;22.88;43.69;100908.63;2083339;28;1967;-56
2022/06/18 03:33:09;;;;;;;;;;;;;;;22.89;43.77;100907.69;2082797;28;1245;-56
2022/06/18 03:34:09;;;;;;;;;;;;;;;22.88;44.17;100912.22;2083334;28;965;-56
2022/06/18 03:35:09;;;;;;;;;;;;;;;22.89;43.46;100915.78;2083361;28;847;-56
2022/06/18 03:36:10;;;;;;;;;;;;;;;22.88;43.61;100917.63;2083267;28;966;-56
2022/06/18 03:37:11;;;;;;;;;;;;;;;22.89;43.91;100918.47;2083356;28;1001;-56
2022/06/18 03:38:12;;;;;;;;;;;;;;;22.88;44.41;100914.91;2083302;28;985;-56
2022/06/18 03:39:12;;;;;;;;;;;;;;;22.88;44.60;100920.31;2082717;28;933;-56
2022/06/18 03:40:12;;;;;;;;;;;;;;;22.87;44.37;100918.56;2074983;28;999;-56
2022/06/18 03:41:13;;;;;;;;;;;;;;;22.88;43.96;100917.63;2075089;28;837;-56
2022/06/18 03:42:13;;;;;;;;;;;;;;;22.88;44.08;100912.22;2083271;28;981;-56
2022/06/18 03:43:14;;;;;;;;;;;;;;;22.88;44.72;100912.22;2083245;28;1036;-56
2022/06/18 03:44:14;;;;;;;;;;;;;;;22.87;44.84;100905.06;2083258;28;847;-56
2022/06/18 03:45:14;;;;;;;;;;;;;;;22.87;44.67;100907.75;2082696;28;1275;-56
2022/06/18 03:46:16;;;;;;;;;;;;;;;22.88;44.66;100912.22;2083183;28;930;-56
2022/06/18 03:47:16;;;;;;;;;;;;;;;22.87;44.36;100896.97;2083259;28;958;-56
2022/06/18 03:48:26;;;;;;;;;;;;;;;22.87;44.71;100899.66;2083272;28;847;-56
2022/06/18 03:49:27;;;;;;;;;;;;;;;22.87;45.13;100896.97;2083266;28;854;-56
2022/06/18 03:50:27;;;;;;;;;;;;;;;22.87;45.16;100896.97;2083201;28;855;-56
2022/06/18 03:51:28;;;;;;;;;;;;;;;22.87;44.67;100902.34;2082664;28;1160;-56
2022/06/18 03:52:28;;;;;;;;;;;;;;;22.88;45.39;100901.41;2083076;28;1899;-56
2022/06/18 03:53:28;;;;;;;;;;;;;;;22.86;45.34;100891.59;2083234;28;1001;-56
2022/06/18 03:54:28;;;;;;;;;;;;;;;22.87;44.87;100893.34;2083245;28;1024;-56
2022/06/18 03:55:28;;;;;;;;;;;;;;;22.86;45.36;100888.91;2083212;28;986;-57
2022/06/18 03:56:30;;;;;;;;;;;;;;;22.86;45.63;100888.91;2083194;28;851;-56
2022/06/18 03:57:30;;;;;;;;;;;;;;;22.87;44.80;100879.84;2082612;28;1141;-56
2022/06/18 03:58:31;;;;;;;;;;;;;;;22.86;44.98;100880.78;2083158;28;788;-56
2022/06/18 03:59:31;;;;;;;;;;;;;;;22.87;45.63;100877.16;2084094;28;945;-56
2022/06/18 04:00:31;;;;;;;;;;;;;;;22.85;45.63;100877.25;2084116;28;766;-56
2022/06/18 04:01:33;;;;;;;;;;;;;;;22.85;45.06;100871.84;2084054;28;926;-56
2022/06/18 04:02:33;;;;;;;;;;;;;;;23.75;43.83;100870.59;2084021;28;885;-56
2022/06/18 04:03:33;;;;;;;;;;;;;;;24.96;40.80;100872.06;2088991;28;1182;-56
2022/06/18 04:04:33;;;;;;;;;;;;;;;25.72;39.23;100874.34;2092411;28;1118;-55
2022/06/18 04:05:36;;;;;;;;;;;;;;;26.34;37.74;100864.66;2092289;28;764;-55
2022/06/18 04:06:38;;;;;;;;;;;;;;;26.69;36.01;100858.97;2092296;28;827;-54
2022/06/18 04:07:39;;;;;;;;;;;;;;;27.10;34.85;100859.31;2092305;28;887;-54
2022/06/18 04:08:39;;;;;;;;;;;;;;;27.36;34.27;100863.19;2092281;28;866;-54
2022/06/18 04:09:42;;;;;;;;;;;;;;;27.78;33.28;100858.75;2092056;28;1156;-54
2022/06/18 04:10:42;;;;;;;;;;;;;;;28.02;33.29;100860.81;2092291;28;891;-55
2022/06/18 04:11:42;;;;;;;;;;;;;;;28.23;32.31;100863.16;2092184;28;1943;-55
2022/06/18 04:12:42;;;;;;;;;;;;;;;28.53;31.47;100854.78;2092249;28;821;-56
2022/06/18 04:13:42;;;;;;;;;;;;;;;28.79;31.29;100849.47;2092216;28;768;-56
2022/06/18 04:14:43;;;;;;;;;;;;;;;29.21;30.99;100854.75;2092183;28;848;-56
2022/06/18 04:15:43;;;;;;;;;;;;;;;29.37;30.28;100853.66;2091956;28;1133;-56
2022/06/18 04:16:43;;;;;;;;;;;;;;;29.53;30.41;100853.47;2092193;28;981;-56
2022/06/18 04:17:43;;;;;;;;;;;;;;;29.83;29.54;100849.53;2092222;28;783;-56
2022/06/18 04:18:44;;;;;;;;;;;;;;;30.07;29.24;100851.44;2092167;28;847;-56
2022/06/18 04:19:44;;;;;;;;;;;;;;;30.17;29.67;100849.78;2092175;28;1016;-56
2022/06/18 04:20:44;;;;;;;;;;;;;;;30.33;28.84;100846.75;2090971;28;900;-56
2022/06/18 04:21:44;;;;;;;;;;;;;;;30.56;28.17;100852.34;2091918;28;1175;-56
2022/06/18 04:22:44;;;;;;;;;;;;;;;30.74;27.69;100836.44;2092164;28;784;-56
2022/06/18 04:23:45;;;;;;;;;;;;;;;30.81;27.84;100840.44;2092119;28;1052;-56
2022/06/18 04:24:45;;;;;;;;;;;;;;;30.99;27.47;100840.00;2092171;28;1037;-56
2022/06/18 04:25:45;;;;;;;;;;;;;;;31.32;27.17;100844.69;2083214;28;703;-56
2022/06/18 04:26:45;;;;;;;;;;;;;;;31.44;27.15;100834.63;2083264;28;947;-56
2022/06/18 04:27:46;;;;;;;;;;;;;;;31.61;27.05;100838.72;2091710;28;1165;-56
2022/06/18 04:28:46;;;;;;;;;;;;;;;31.71;26.72;100838.88;2083325;28;1355;-56
2022/06/18 04:29:46;;;;;;;;;;;;;;;32.04;26.17;100834.38;2083321;28;819;-56
2022/06/18 04:30:47;;;;;;;;;;;;;;;32.31;26.00;100830.38;2092104;28;1013;-56
2022/06/18 04:31:47;;;;;;;;;;;;;;;32.58;25.26;100828.16;2092016;28;1914;-56
2022/06/18 04:32:47;;;;;;;;;;;;;;;32.56;25.17;100827.41;2083155;28;1088;-56
2022/06/18 04:33:47;;;;;;;;;;;;;;;32.62;25.30;100816.78;2083009;28;1071;-56
2022/06/18 04:34:47;;;;;;;;;;;;;;;32.64;25.05;100817.53;2092115;28;704;-56
2022/06/18 04:35:51;;;;;;;;;;;;;;;32.79;24.82;100820.81;2092043;28;752;-56
2022/06/18 04:36:52;;;;;;;;;;;;;;;33.01;24.78;100824.47;2092103;28;810;-56
2022/06/18 04:37:52;;;;;;;;;;;;;;;33.07;24.72;100823.03;2091948;28;1176;-56
2022/06/18 04:38:52;;;;;;;;;;;;;;;33.00;24.86;100824.56;2092021;28;890;-56
2022/06/18 04:39:53;;;;;;;;;;;;;;;32.94;24.91;100836.97;2091895;28;1000;-57
2022/06/18 04:40:53;;;;;;;;;;;;;;;33.02;25.21;100826.19;2091942;28;991;-56
2022/06/18 04:41:53;;;;;;;;;;;;;;;33.02;24.77;100825.31;2092046;28;804;-56
2022/06/18 04:42:53;;;;;;;;;;;;;;;33.08;24.87;100824.78;2091973;28;918;-56
2022/06/18 04:43:55;;;;;;;;;;;;;;;33.25;24.83;100824.16;2091999;28;1024;-56
2022/06/18 04:44:55;;;;;;;;;;;;;;;33.31;24.53;100817.25;2092004;28;851;-56
2022/06/18 04:45:56;;;;;;;;;;;;;;;33.51;24.42;100823.78;2092008;28;819;-56
2022/06/18 04:46:56;;;;;;;;;;;;;;;33.54;24.58;100818.00;2082811;28;1368;-56
2022/06/18 04:47:57;;;;;;;;;;;;;;;33.49;24.59;100820.28;2083142;28;978;-56
2022/06/18 04:48:57;;;;;;;;;;;;;;;33.23;25.09;100820.69;2091865;28;1036;-56
2022/06/18 04:49:58;;;;;;;;;;;;;;;33.56;24.57;100817.84;2091930;28;841;-56
2022/06/18 04:50:58;;;;;;;;;;;;;;;33.58;24.20;100813.09;2091934;28;803;-56
2022/06/18 04:51:59;;;;;;;;;;;;;;;33.74;24.45;100812.56;2091879;28;1899;-56
2022/06/18 04:52:59;;;;;;;;;;;;;;;33.80;24.20;100812.00;2091690;28;1144;-56
2022/06/18 04:53:59;;;;;;;;;;;;;;;33.70;24.49;100805.59;2092061;28;844;-55
2022/06/18 04:54:59;;;;;;;;;;;;;;;33.61;24.86;100801.84;2091904;28;1028;-56
2022/06/18 04:55:59;;;;;;;;;;;;;;;33.82;24.09;100803.66;2091900;28;993;-56
2022/06/18 04:56:59;;;;;;;;;;;;;;;33.65;24.66;100797.81;2091912;28;764;-56
2022/06/18 04:58:00;;;;;;;;;;;;;;;33.70;24.55;100800.13;2091891;28;843;-56
2022/06/18 04:59:00;;;;;;;;;;;;;;;33.89;24.56;100803.94;2091769;28;1206;-56
2022/06/18 05:00:00;;;;;;;;;;;;;;;33.69;24.59;100804.75;2091851;28;1179;-56
2022/06/18 05:01:00;;;;;;;;;;;;;;;33.87;24.25;100794.97;2082947;28;796;-56
2022/06/18 05:02:03;;;;;;;;;;;;;;;34.05;24.03;100795.19;2082980;28;978;-56
2022/06/18 05:03:03;;;;;;;;;;;;;;;34.08;24.21;100787.53;2091839;28;1052;-56
2022/06/18 05:04:03;;;;;;;;;;;;;;;34.10;23.90;100795.63;2091823;28;965;-56
2022/06/18 05:05:05;;;;;;;;;;;;;;;34.04;24.51;100791.59;2091794;28;964;-57
2022/06/18 05:06:05;;;;;;;;;;;;;;;34.08;24.60;100792.16;2091767;28;1220;-56
2022/06/18 05:07:05;;;;;;;;;;;;;;;34.19;24.71;100791.13;2091822;28;776;-56
2022/06/18 05:08:06;;;;;;;;;;;;;;;34.44;24.91;100782.38;2091817;28;969;-56
2022/06/18 05:09:06;;;;;;;;;;;;;;;34.34;25.34;100784.22;2091830;28;768;-56
2022/06/18 05:10:06;;;;;;;;;;;;;;;34.47;25.24;100774.84;2091786;28;1041;-56
2022/06/18 05:11:06;;;;;;;;;;;;;;;34.37;25.33;100770.19;2091557;28;1012;-56
2022/06/18 05:12:07;;;;;;;;;;;;;;;34.50;25.21;100769.06;2091759;28;1905;-56
2022/06/18 05:13:07;;;;;;;;;;;;;;;34.50;25.36;100769.06;2091758;28;1040;-56
2022/06/18 05:14:07;;;;;;;;;;;;;;;34.34;25.49;100764.97;2091715;28;848;-56
2022/06/18 05:15:08;;;;;;;;;;;;;;;34.16;25.74;100778.56;2091718;28;989;-56
2022/06/18 05:16:09;;;;;;;;;;;;;;;34.23;25.58;100777.00;2091764;28;942;-56
2022/06/18 05:17:11;;;;;;;;;;;;;;;34.45;25.10;100769.47;2091907;28;740;-56
2022/06/18 05:18:13;;;;;;;;;;;;;;;34.44;24.94;100757.63;2091498;28;1134;-56
2022/06/18 05:19:24;;;;;;;;;;;;;;;34.33;25.40;100765.13;2091715;28;843;-56
2022/06/18 05:20:24;;;;;;;;;;;;;;;34.29;25.84;100759.03;2091786;28;783;-56
2022/06/18 05:21:24;;;;;;;;;;;;;;;34.28;25.88;100763.69;2091719;28;869;-56
2022/06/18 05:22:24;;;;;;;;;;;;;;;34.40;25.50;100761.66;2091688;28;779;-56
2022/06/18 05:23:25;;;;;;;;;;;;;;;34.52;25.28;100756.88;2091698;28;851;-56
2022/06/18 05:24:25;;;;;;;;;;;;;;;34.54;25.25;100760.34;2091386;28;1139;-56
2022/06/18 05:25:25;;;;;;;;;;;;;;;34.54;25.09;100754.00;2091674;28;958;-56
2022/06/18 05:26:25;;;;;;;;;;;;;;;34.34;25.73;100748.47;2082694;28;1618;-56
2022/06/18 05:27:28;;;;;;;;;;;;;;;34.46;25.84;100756.63;2082775;28;1076;-56
2022/06/18 05:28:28;;;;;;;;;;;;;;;34.48;25.52;100752.69;2091671;28;897;-56
2022/06/18 05:29:28;;;;;;;;;;;;;;;34.51;25.51;100748.81;2082767;28;957;-56